KMCX

White County Airport

Monticello, Indiana, USA
METAR KMCX 141335Z AUTO 00000KT 10SM CLR 22/19 A3002 RMK AO2 T02170188
Observed Flight Rules
Aug-14 @ 13:35 UTC (8 minutes ago) Visual Flight Rules
Visibility Clouds
10 miles
  • Clear skies
Temperatures Readings
Current 22°C / 72°F
Dewpoint 19°C / 66°F
Humidity 83%
Altimeter 30.02" Hg
Pressure 1017 hPa
Elevation 206
METAR KMCX 141335Z AUTO 00000KT 10SM CLR 22/19 A3002 RMK AO2 T02170188
Observed Flight Rules
Aug-14 @ 13:35 UTC
(8 minutes ago)
VFR
Clouds
  • Clear skies
Temperature Dewpoint
22°C / 72°F 19°C / 66°F
Humidity Altimeter Pressure
83% 30.02" Hg 1017 hPa